Time;durP1;ratioP1;P1;durP2;ratioP2;P2;SDS_P1;SDS_P2;PMS_P1;PMS_P2;Temp;Humidity;BMP_temperature;BMP_pressure;BME280_temperature;BME280_humidity;BME280_pressure;Samples;Min_cycle;Max_cycle;Signal;HPM_P1;HPM_P2
2021/12/07 00:01:42;;;;;;;5.50;3.08;;;-2.70;99.90;;;;;;5014433;28;20030;-84
2021/12/07 00:04:08;;;;;;;5.95;3.05;;;-2.70;99.90;;;;;;5013160;28;20478;-84
2021/12/07 00:06:35;;;;;;;5.25;2.58;;;-2.70;99.90;;;;;;5014304;28;20110;-84
2021/12/07 00:09:04;;;;;;;8.02;2.30;;;-2.70;99.90;;;;;;5014286;28;20049;-84
2021/12/07 00:11:30;;;;;;;5.72;2.17;;;-2.70;99.90;;;;;;5014101;28;20433;-83
2021/12/07 00:13:58;;;;;;;3.83;2.03;;;-2.70;99.90;;;;;;5014265;28;20026;-84
2021/12/07 00:16:25;;;;;;;3.80;1.90;;;-2.70;99.90;;;;;;5014207;28;20049;-84
2021/12/07 00:18:51;;;;;;;3.05;1.80;;;-2.80;99.90;;;;;;5013152;28;20390;-84
2021/12/07 00:21:19;;;;;;;3.92;2.03;;;-2.70;99.90;;;;;;5014089;28;20038;-84
2021/12/07 00:23:47;;;;;;;3.85;1.80;;;-2.70;99.90;;;;;;5014121;28;20105;-84
2021/12/07 00:26:13;;;;;;;3.63;1.77;;;-2.70;99.90;;;;;;5013633;28;20053;-83
2021/12/07 00:28:40;;;;;;;4.68;2.30;;;-2.80;99.90;;;;;;5013340;28;20026;-81
2021/12/07 00:31:14;;;;;;;6.00;2.83;;;-2.80;99.90;;;;;;5014169;28;20053;-81
2021/12/07 00:33:50;;;;;;;5.70;2.85;;;-2.80;99.90;;;;;;5014355;28;20386;-81
2021/12/07 00:36:16;;;;;;;8.48;3.97;;;-2.70;99.90;;;;;;5014335;28;20087;-81
2021/12/07 00:38:42;;;;;;;7.05;4.05;;;-2.80;99.90;;;;;;5012812;28;20022;-81
2021/12/07 00:41:08;;;;;;;5.43;2.78;;;-2.70;99.90;;;;;;5013850;28;20033;-82
2021/12/07 00:43:34;;;;;;;4.20;2.15;;;-2.80;99.90;;;;;;5012959;28;20030;-81
2021/12/07 00:46:01;;;;;;;3.13;1.75;;;-2.90;99.90;;;;;;5013884;28;20033;-81
2021/12/07 00:48:28;;;;;;;3.08;1.50;;;-2.90;99.90;;;;;;5012654;28;20053;-82
2021/12/07 00:50:56;;;;;;;3.05;1.75;;;-3.00;99.90;;;;;;5012039;28;20367;-82
2021/12/07 00:53:22;;;;;;;2.88;1.30;;;-3.00;99.90;;;;;;5013925;28;20450;-82
2021/12/07 00:55:57;;;;;;;2.85;1.05;;;-3.10;99.90;;;;;;5013894;28;20505;-81
2021/12/07 00:58:24;;;;;;;3.92;1.70;;;-3.00;99.90;;;;;;5013822;28;20030;-81
2021/12/07 01:01:02;;;;;;;4.25;1.42;;;-3.00;99.90;;;;;;5012495;28;20022;-82
2021/12/07 01:03:29;;;;;;;2.28;1.40;;;-3.00;99.90;;;;;;5017005;28;20022;-82
2021/12/07 01:06:13;;;;;;;2.17;1.10;;;-3.10;99.90;;;;;;5026713;28;20030;-83
2021/12/07 01:25:17;;;;;;;4.47;1.80;;;-3.60;99.90;;;;;;5010769;28;20413;-82
2021/12/07 01:27:46;;;;;;;3.63;1.75;;;-3.60;99.90;;;;;;5011509;28;20461;-82
2021/12/07 01:30:18;;;;;;;2.97;1.50;;;-3.70;99.90;;;;;;5012929;28;20025;-81
2021/12/07 01:33:07;;;;;;;4.22;1.27;;;-3.70;99.90;;;;;;5012263;28;20022;-82
2021/12/07 01:35:56;;;;;;;3.08;1.63;;;-3.80;99.90;;;;;;5012407;28;20036;-82
2021/12/07 01:39:29;;;;;;;3.78;1.65;;;-3.80;99.90;;;;;;5013612;28;20040;-81
2021/12/07 01:59:51;;;;;;;3.70;1.60;;;-3.90;99.90;;;;;;5013668;28;20040;-81
2021/12/07 02:02:19;;;;;;;3.78;1.80;;;-3.90;99.90;;;;;;5015279;28;20367;-81
2021/12/07 02:04:46;;;;;;;5.68;1.98;;;-4.00;99.90;;;;;;5016641;28;20470;-81
2021/12/07 02:07:13;;;;;;;4.90;2.22;;;-4.00;99.90;;;;;;5015272;28;20029;-81
2021/12/07 02:09:44;;;;;;;5.43;1.90;;;-4.10;99.90;;;;;;5017864;28;20467;-81
2021/12/07 02:12:12;;;;;;;;;;;-4.10;99.90;;;;;;5016072;28;20029;-81
2021/12/07 02:14:38;;;;;;;2.67;1.50;;;-4.20;99.90;;;;;;5021110;28;20357;-81
2021/12/07 02:17:08;;;;;;;2.17;1.15;;;-4.20;99.90;;;;;;5017657;28;20034;-81
2021/12/07 02:19:34;;;;;;;2.87;1.33;;;-4.20;99.90;;;;;;5016818;28;20022;-81
2021/12/07 02:22:01;;;;;;;1.83;1.02;;;-4.20;99.90;;;;;;5016301;28;20046;-81
2021/12/07 02:24:28;;;;;;;4.05;1.23;;;-4.20;99.90;;;;;;5016328;28;20033;-81
2021/12/07 02:26:54;;;;;;;1.55;0.90;;;-4.30;99.90;;;;;;5015892;28;20479;-81
2021/12/07 02:29:21;;;;;;;2.30;1.30;;;-4.30;99.90;;;;;;5014759;28;20394;-81
2021/12/07 02:31:49;;;;;;;2.10;1.15;;;-4.40;99.90;;;;;;5016209;28;20026;-81
2021/12/07 02:34:15;;;;;;;2.28;1.30;;;-4.40;99.90;;;;;;5014880;28;20026;-81
2021/12/07 02:36:41;;;;;;;31.45;9.48;;;-4.40;99.90;;;;;;5016020;28;20053;-81
2021/12/07 02:39:11;;;;;;;13.02;5.93;;;-4.40;99.90;;;;;;5016245;28;20030;-81
2021/12/07 02:41:38;;;;;;;9.48;3.83;;;-4.40;99.90;;;;;;5014903;28;20030;-81
2021/12/07 02:44:08;;;;;;;25.38;9.60;;;-4.40;99.90;;;;;;5015180;28;20030;-81
2021/12/07 02:46:35;;;;;;;10.55;3.85;;;-4.50;99.90;;;;;;5014574;28;20394;-81
2021/12/07 02:49:02;;;;;;;10.50;3.70;;;-4.50;99.90;;;;;;5015929;28;20024;-81
2021/12/07 02:51:28;;;;;;;14.98;5.63;;;-4.70;99.90;;;;;;5015847;28;20470;-81
2021/12/07 02:53:55;;;;;;;13.27;5.50;;;-4.70;99.90;;;;;;5015989;28;20029;-81
2021/12/07 02:56:21;;;;;;;13.45;5.47;;;-4.70;99.90;;;;;;5014009;28;20125;-82
2021/12/07 02:58:47;;;;;;;10.80;5.10;;;-4.70;99.90;;;;;;5015771;28;20101;-81
2021/12/07 03:01:21;;;;;;;10.75;4.03;;;-4.70;99.90;;;;;;5015684;28;20026;-81
2021/12/07 03:04:24;;;;;;;10.40;3.92;;;-4.60;99.90;;;;;;5015705;28;20437;-81
2021/12/07 03:07:15;;;;;;;7.05;3.20;;;-4.60;99.90;;;;;;5014130;28;20040;-81
2021/12/07 03:26:09;;;;;;;10.32;3.30;;;-4.40;99.90;;;;;;5003525;28;20049;-81
2021/12/07 03:28:47;;;;;;;6.13;2.90;;;-4.40;99.90;;;;;;5014952;28;20030;-81
2021/12/07 03:31:14;;;;;;;4.05;2.10;;;-4.30;99.90;;;;;;5014024;28;20022;-81
2021/12/07 03:33:40;;;;;;;6.03;2.00;;;-4.30;99.90;;;;;;5014993;28;20026;-81
2021/12/07 03:36:08;;;;;;;3.60;1.80;;;-4.30;99.90;;;;;;5013885;28;20037;-81
2021/12/07 03:38:33;;;;;;;4.20;1.90;;;-4.30;99.90;;;;;;5015076;28;20062;-81
2021/12/07 03:41:00;;;;;;;2.70;1.17;;;-4.30;99.90;;;;;;5013849;28;20064;-81
2021/12/07 03:43:26;;;;;;;4.60;1.92;;;-4.40;99.90;;;;;;5013815;28;20034;-81
2021/12/07 03:45:52;;;;;;;4.53;1.70;;;-4.40;99.90;;;;;;5015025;28;20088;-81
2021/12/07 03:48:18;;;;;;;3.30;1.55;;;-4.40;99.90;;;;;;5014862;28;20465;-81
2021/12/07 03:50:44;;;;;;;4.05;1.38;;;-4.40;99.90;;;;;;5013689;28;20025;-81
2021/12/07 03:53:11;;;;;;;3.60;1.75;;;-4.40;99.90;;;;;;5014888;28;20022;-81
2021/12/07 03:55:37;;;;;;;4.63;1.70;;;-4.40;99.90;;;;;;5014678;28;20058;-81
2021/12/07 03:58:03;;;;;;;3.10;1.50;;;-4.40;99.90;;;;;;5014692;28;20430;-81
2021/12/07 04:00:33;;;;;;;4.38;1.58;;;-4.40;99.90;;;;;;5014508;28;20406;-81
2021/12/07 04:03:03;;;;;;;1.98;1.23;;;-4.30;99.90;;;;;;5014638;28;20509;-80
2021/12/07 04:05:29;;;;;;;3.85;1.63;;;-4.30;99.90;;;;;;5014666;28;20386;-81
2021/12/07 04:07:54;;;;;;;5.20;2.20;;;-4.20;99.90;;;;;;5013277;28;20021;-81
2021/12/07 04:10:23;;;;;;;11.23;3.08;;;-4.20;99.90;;;;;;5013454;28;20548;-80
2021/12/07 04:12:49;;;;;;;5.45;2.45;;;-4.20;99.90;;;;;;5013044;28;20470;-81
2021/12/07 04:15:16;;;;;;;6.90;2.70;;;-4.30;99.90;;;;;;5013303;28;20157;-80
2021/12/07 04:17:43;;;;;;;3.85;2.20;;;-4.30;99.90;;;;;;5013129;28;20493;-81
2021/12/07 04:20:10;;;;;;;21.75;7.97;;;-4.20;99.90;;;;;;5013213;28;20040;-80
2021/12/07 04:22:36;;;;;;;6.10;2.55;;;-4.20;99.90;;;;;;5014308;28;20041;-80
2021/12/07 04:25:05;;;;;;;5.60;1.92;;;-4.20;99.90;;;;;;5014503;28;20038;-81
2021/12/07 04:27:34;;;;;;;3.42;1.52;;;-4.20;99.90;;;;;;5014175;28;20037;-80
2021/12/07 04:30:00;;;;;;;3.60;1.60;;;-4.20;99.90;;;;;;5015414;28;20013;-81
2021/12/07 04:32:26;;;;;;;3.15;1.23;;;-4.20;99.90;;;;;;5016862;28;20461;-80
2021/12/07 04:34:52;;;;;;;3.85;1.40;;;-4.20;99.90;;;;;;5013038;28;20022;-80
2021/12/07 04:37:18;;;;;;;3.08;1.25;;;-4.20;99.90;;;;;;5012861;28;20034;-80
2021/12/07 04:39:44;;;;;;;2.85;1.50;;;-4.20;99.90;;;;;;5014284;28;20386;-80
2021/12/07 04:42:09;;;;;;;3.60;1.33;;;-4.10;99.90;;;;;;5012662;28;20497;-80
2021/12/07 04:44:42;;;;;;;6.45;1.60;;;-4.00;99.90;;;;;;5014541;28;20041;-80
2021/12/07 04:47:16;;;;;;;3.28;1.70;;;-4.00;99.90;;;;;;5013799;28;20116;-81
2021/12/07 04:50:19;;;;;;;2.88;1.50;;;-3.90;99.90;;;;;;5014720;28;20104;-81
2021/12/07 04:58:07;;;;;;;2.88;1.40;;;-3.90;99.90;;;;;;5013901;28;20133;-80
2021/12/07 05:00:33;;;;;;;3.38;1.15;;;-3.80;99.90;;;;;;5014028;28;20076;-81
2021/12/07 05:03:07;;;;;;;4.57;1.40;;;-3.80;99.90;;;;;;5013745;28;20101;-81
2021/12/07 05:05:39;;;;;;;3.92;1.63;;;-3.80;99.90;;;;;;5013880;28;20022;-80
2021/12/07 05:08:08;;;;;;;4.22;1.50;;;-3.70;99.90;;;;;;5013896;28;20029;-80
2021/12/07 05:18:42;;;;;;;3.70;1.50;;;-3.50;99.90;;;;;;5014104;28;20034;-81
2021/12/07 05:24:10;;;;;;;16.52;6.85;;;-3.40;99.90;;;;;;5013938;28;20071;-81
2021/12/07 05:40:09;;;;;;;2.88;1.38;;;-3.30;99.90;;;;;;5017430;28;20401;-80
2021/12/07 05:42:36;;;;;;;6.40;3.28;;;-3.20;99.90;;;;;;5015940;28;20053;-80
2021/12/07 05:45:05;;;;;;;7.28;2.63;;;-3.30;99.90;;;;;;5017456;28;20061;-80
2021/12/07 05:47:30;;;;;;;4.35;1.92;;;-3.30;99.90;;;;;;5017156;28;20551;-80
2021/12/07 05:49:56;;;;;;;5.50;1.70;;;-3.30;99.90;;;;;;5015852;28;20030;-80
2021/12/07 05:52:22;;;;;;;4.05;1.60;;;-3.30;99.90;;;;;;5017095;28;20053;-80
2021/12/07 05:54:48;;;;;;;5.18;1.50;;;-3.30;99.90;;;;;;5017253;28;20026;-80
2021/12/07 05:57:14;;;;;;;3.13;1.45;;;-3.30;99.90;;;;;;5016860;28;20026;-80
2021/12/07 05:59:40;;;;;;;4.10;1.58;;;-3.30;99.90;;;;;;5016721;28;20037;-80
2021/12/07 06:02:06;;;;;;;4.45;2.13;;;-3.30;99.90;;;;;;5016120;28;20499;-80
2021/12/07 06:04:32;;;;;;;4.00;2.60;;;-3.30;99.90;;;;;;5015693;28;20060;-80
2021/12/07 06:06:58;;;;;;;5.22;3.22;;;-3.30;99.90;;;;;;5016885;28;20108;-80
2021/12/07 06:09:25;;;;;;;4.65;2.92;;;-3.30;99.90;;;;;;5016343;28;20028;-79
2021/12/07 06:11:51;;;;;;;5.38;3.17;;;-3.30;99.90;;;;;;5015592;28;20168;-79
2021/12/07 06:14:19;;;;;;;4.13;2.50;;;-3.20;99.90;;;;;;5016705;28;20097;-79
2021/12/07 06:16:46;;;;;;;4.72;2.40;;;-3.20;99.90;;;;;;5017639;28;20459;-79
2021/12/07 06:19:12;;;;;;;7.35;3.72;;;-3.10;99.90;;;;;;5016835;28;20126;-79
2021/12/07 06:21:38;;;;;;;7.55;3.67;;;-3.00;99.90;;;;;;5016925;28;20030;-79
2021/12/07 06:24:04;;;;;;;12.65;5.22;;;-2.90;99.90;;;;;;5015499;28;20056;-79
2021/12/07 06:26:30;;;;;;;13.48;6.15;;;-2.90;99.90;;;;;;5017092;28;20084;-79
2021/12/07 06:28:55;;;;;;;12.13;5.68;;;-2.80;99.90;;;;;;5016862;28;20026;-82
2021/12/07 06:31:21;;;;;;;10.25;4.45;;;-2.70;99.90;;;;;;5016500;28;20050;-83
2021/12/07 06:33:47;;;;;;;7.30;3.38;;;-2.70;99.90;;;;;;5014860;28;20436;-83
2021/12/07 06:36:14;;;;;;;6.55;2.97;;;-2.70;99.90;;;;;;5016672;28;20026;-83
2021/12/07 06:38:40;;;;;;;4.47;1.70;;;-2.60;99.90;;;;;;5015930;28;20387;-83
2021/12/07 06:41:06;;;;;;;6.82;2.20;;;-2.60;99.90;;;;;;5014632;28;20038;-83
2021/12/07 06:43:32;;;;;;;3.33;1.98;;;-2.60;99.90;;;;;;5015497;28;20037;-83
2021/12/07 06:45:57;;;;;;;5.40;1.80;;;-2.60;99.90;;;;;;5014512;28;20576;-84
2021/12/07 06:48:23;;;;;;;5.25;1.92;;;-2.60;99.90;;;;;;5015686;28;20056;-84
2021/12/07 06:50:49;;;;;;;7.30;2.83;;;-2.60;99.90;;;;;;5014636;28;20033;-84
2021/12/07 06:53:15;;;;;;;4.32;1.90;;;-2.60;99.90;;;;;;5014459;28;20037;-84
2021/12/07 06:55:41;;;;;;;4.25;2.20;;;-2.50;99.90;;;;;;5015657;28;20018;-82
2021/12/07 06:58:07;;;;;;;4.78;2.08;;;-2.50;99.90;;;;;;5015759;28;20035;-82
2021/12/07 07:00:33;;;;;;;3.63;1.50;;;-2.50;99.90;;;;;;5015815;28;20386;-82
2021/12/07 07:02:59;;;;;;;2.63;1.50;;;-2.50;99.90;;;;;;5014237;28;20021;-82
2021/12/07 07:05:25;;;;;;;3.95;1.70;;;-2.60;99.90;;;;;;5015605;28;20433;-82
2021/12/07 07:07:50;;;;;;;5.07;1.77;;;-2.60;99.90;;;;;;5014041;28;20029;-82
2021/12/07 07:10:18;;;;;;;2.63;1.48;;;-2.60;99.90;;;;;;5015880;28;20490;-82
2021/12/07 07:12:44;;;;;;;4.13;2.00;;;-2.60;99.90;;;;;;4999091;28;20383;-82
2021/12/07 07:15:11;;;;;;;3.50;1.83;;;-2.60;99.90;;;;;;4995910;28;20023;-83
2021/12/07 07:17:37;;;;;;;3.88;1.58;;;-2.60;99.90;;;;;;4995611;28;20050;-84
2021/12/07 07:20:05;;;;;;;4.03;1.75;;;-2.50;99.90;;;;;;4995459;28;20030;-84
2021/12/07 07:22:31;;;;;;;6.30;2.08;;;-2.50;99.90;;;;;;4994465;28;20106;-83
2021/12/07 07:24:57;;;;;;;4.43;2.25;;;-2.50;99.90;;;;;;4995382;28;20168;-84
2021/12/07 07:27:23;;;;;;;2.42;1.60;;;-2.50;99.90;;;;;;5012232;28;20397;-83
2021/12/07 07:29:49;;;;;;;5.45;1.98;;;-2.50;99.90;;;;;;5015092;28;20026;-83
2021/12/07 07:32:15;;;;;;;5.43;2.72;;;-2.50;99.90;;;;;;5013650;28;20028;-83
2021/12/07 07:34:40;;;;;;;4.43;2.22;;;-2.50;99.90;;;;;;5014886;28;20025;-84
2021/12/07 07:37:06;;;;;;;30.40;11.70;;;-2.40;99.90;;;;;;5013512;28;20084;-83
2021/12/07 07:39:32;;;;;;;30.98;11.70;;;-2.40;99.90;;;;;;5013913;28;20040;-83
2021/12/07 07:41:58;;;;;;;30.13;11.10;;;-2.30;99.90;;;;;;5013600;28;20026;-83
2021/12/07 07:44:24;;;;;;;15.05;7.00;;;-2.30;99.90;;;;;;5013236;28;20030;-83
2021/12/07 07:46:50;;;;;;;9.93;4.45;;;-2.20;99.90;;;;;;5013306;28;20038;-83
2021/12/07 07:49:15;;;;;;;12.50;4.65;;;-2.20;99.90;;;;;;5014706;28;20377;-83
2021/12/07 07:51:41;;;;;;;8.25;5.07;;;-2.20;99.90;;;;;;5014584;28;20030;-83
2021/12/07 07:54:07;;;;;;;11.30;5.93;;;-2.20;99.90;;;;;;5014852;28;20429;-83
2021/12/07 07:56:33;;;;;;;11.10;5.78;;;-2.20;99.90;;;;;;5014346;28;20030;-83
2021/12/07 07:59:00;;;;;;;8.02;4.70;;;-2.20;99.90;;;;;;5013925;28;20056;-83
2021/12/07 08:01:30;;;;;;;8.23;3.40;;;-2.30;99.90;;;;;;5013129;28;20041;-83
2021/12/07 08:04:00;;;;;;;6.03;3.40;;;-2.30;99.90;;;;;;5014156;28;20026;-83
2021/12/07 08:06:26;;;;;;;8.15;3.78;;;-2.30;99.90;;;;;;5012258;28;20129;-81
2021/12/07 08:08:52;;;;;;;8.90;4.07;;;-2.30;99.90;;;;;;5014459;28;20097;-82
2021/12/07 08:11:18;;;;;;;11.23;5.22;;;-2.30;99.90;;;;;;5014441;28;20026;-82
2021/12/07 08:13:43;;;;;;;8.85;5.35;;;-2.30;99.90;;;;;;5014113;28;20029;-82
2021/12/07 08:16:15;;;;;;;13.50;7.68;;;-2.30;99.90;;;;;;5013225;28;20028;-83
2021/12/07 08:18:50;;;;;;;17.85;8.70;;;-2.20;99.90;;;;;;5014520;28;20026;-82
2021/12/07 08:21:17;;;;;;;12.25;6.28;;;-2.20;99.90;;;;;;5012847;28;20030;-82
2021/12/07 08:23:43;;;;;;;8.73;4.57;;;-2.30;99.90;;;;;;5012807;28;20030;-82
2021/12/07 08:26:11;;;;;;;10.15;3.83;;;-2.30;99.90;;;;;;5013323;28;20462;-81
2021/12/07 08:28:38;;;;;;;8.30;3.53;;;-2.30;99.90;;;;;;5014215;28;20382;-82
2021/12/07 08:31:04;;;;;;;6.32;2.90;;;-2.30;99.90;;;;;;5013936;28;20049;-82
2021/12/07 08:33:32;;;;;;;6.32;3.58;;;-2.30;99.90;;;;;;5014234;28;20068;-82
2021/12/07 08:35:58;;;;;;;6.10;3.13;;;-2.20;99.90;;;;;;5014023;28;20022;-83
2021/12/07 08:38:24;;;;;;;7.45;3.20;;;-2.10;99.90;;;;;;5013814;28;20025;-81
2021/12/07 08:40:53;;;;;;;4.93;2.90;;;-2.00;99.90;;;;;;5013580;28;20097;-81
2021/12/07 08:43:21;;;;;;;6.43;3.85;;;-2.00;99.90;;;;;;5012612;28;20375;-81
2021/12/07 08:45:47;;;;;;;7.10;4.13;;;-1.90;99.90;;;;;;5013837;28;20033;-81
2021/12/07 08:48:13;;;;;;;11.27;5.10;;;-1.80;99.90;;;;;;5013798;28;20045;-81
2021/12/07 08:50:41;;;;;;;10.27;5.57;;;-1.70;99.90;;;;;;5014049;28;20062;-81
2021/12/07 08:53:11;;;;;;;10.43;5.65;;;-1.70;99.90;;;;;;5013682;28;20029;-83
2021/12/07 09:01:07;;;;;;;12.00;5.00;;;-1.70;99.90;;;;;;5013949;28;20037;-83
2021/12/07 09:03:33;;;;;;;11.52;4.45;;;-1.80;99.90;;;;;;5012326;28;20478;-83
2021/12/07 09:05:58;;;;;;;7.65;4.00;;;-1.80;99.90;;;;;;5010441;28;20029;-83
2021/12/07 09:08:24;;;;;;;10.00;4.07;;;-1.80;99.90;;;;;;5013563;28;20026;-83
2021/12/07 09:10:50;;;;;;;9.55;5.35;;;-1.80;99.90;;;;;;5013441;28;20022;-83
2021/12/07 09:13:16;;;;;;;15.05;7.60;;;-1.70;99.90;;;;;;5017660;28;20030;-83
2021/12/07 09:15:42;;;;;;;12.50;6.75;;;-1.70;99.90;;;;;;5016317;28;20037;-85
2021/12/07 09:18:08;;;;;;;10.77;5.93;;;-1.70;99.90;;;;;;5018016;28;20034;-84
2021/12/07 09:20:35;;;;;;;11.80;5.60;;;-1.70;99.90;;;;;;5016272;28;20029;-82
2021/12/07 09:23:01;;;;;;;8.52;5.07;;;-1.60;99.90;;;;;;5017786;28;20038;-80
2021/12/07 09:25:27;;;;;;;8.18;4.70;;;-1.60;99.90;;;;;;5017394;28;20038;-80
2021/12/07 09:27:53;;;;;;;10.80;5.13;;;-1.50;99.90;;;;;;5016958;28;20034;-79
2021/12/07 09:30:20;;;;;;;20.65;8.57;;;-1.50;99.90;;;;;;5017287;28;20037;-79
2021/12/07 09:32:47;;;;;;;19.13;8.05;;;-1.50;99.90;;;;;;5016097;28;20524;-79
2021/12/07 09:35:14;;;;;;;16.85;9.55;;;-1.40;99.90;;;;;;5016045;28;20495;-79
2021/12/07 09:37:40;;;;;;;16.23;7.85;;;-1.40;99.90;;;;;;5017095;28;20463;-79
2021/12/07 09:40:14;;;;;;;13.80;6.90;;;-1.40;99.90;;;;;;5017146;28;20478;-80
2021/12/07 09:42:40;;;;;;;13.35;6.65;;;-1.40;99.90;;;;;;5016877;28;20103;-79
2021/12/07 09:45:10;;;;;;;16.38;9.98;;;-1.30;99.90;;;;;;5016972;28;20484;-79
2021/12/07 09:47:37;;;;;;;13.35;8.55;;;-1.20;99.90;;;;;;5016887;28;20029;-79
2021/12/07 09:50:06;;;;;;;12.68;6.28;;;-1.10;99.90;;;;;;5016942;28;20467;-79
2021/12/07 09:52:32;;;;;;;7.68;4.50;;;-1.00;99.90;;;;;;5015804;28;20075;-80
2021/12/07 09:54:58;;;;;;;5.93;3.88;;;-0.90;99.90;;;;;;5015541;28;20030;-79
2021/12/07 09:57:24;;;;;;;5.72;2.85;;;-0.90;99.90;;;;;;5016466;28;20018;-80
2021/12/07 09:59:50;;;;;;;5.80;2.50;;;-0.80;99.90;;;;;;5016918;28;20030;-80
2021/12/07 10:02:16;;;;;;;4.20;2.35;;;-0.80;99.90;;;;;;5016368;28;20049;-79
2021/12/07 10:04:41;;;;;;;5.57;3.08;;;-0.70;99.90;;;;;;5017159;28;20018;-79
2021/12/07 10:07:10;;;;;;;4.00;2.40;;;-0.60;99.90;;;;;;5016437;28;20057;-80
2021/12/07 10:09:36;;;;;;;4.78;2.15;;;-0.60;99.90;;;;;;5016756;28;20022;-80
2021/12/07 10:12:03;;;;;;;3.90;1.80;;;-0.50;99.90;;;;;;5016354;28;20023;-79
2021/12/07 10:14:42;;;;;;;4.40;1.60;;;-0.50;99.90;;;;;;5016290;28;20447;-79
2021/12/07 10:17:09;;;;;;;3.13;1.73;;;-0.40;99.90;;;;;;5016366;28;20060;-79
2021/12/07 10:19:41;;;;;;;3.38;1.90;;;-0.30;99.90;;;;;;5016582;28;20397;-80
2021/12/07 10:22:19;;;;;;;4.78;2.40;;;-0.10;99.90;;;;;;5016189;28;20474;-80
2021/12/07 10:24:54;;;;;;;3.13;2.10;;;0.10;99.90;;;;;;5014866;28;20406;-79
2021/12/07 10:27:38;;;;;;;3.35;1.92;;;0.30;99.90;;;;;;5015873;28;20018;-79
2021/12/07 10:30:08;;;;;;;2.50;1.60;;;0.50;99.90;;;;;;5016276;28;20030;-79
2021/12/07 10:32:38;;;;;;;4.03;1.88;;;0.60;99.90;;;;;;5014699;28;20026;-79
2021/12/07 10:35:04;;;;;;;4.67;1.63;;;0.70;99.90;;;;;;5014784;28;20029;-79
2021/12/07 10:37:31;;;;;;;4.38;1.85;;;0.70;99.90;;;;;;5015987;28;20033;-79
2021/12/07 10:39:57;;;;;;;3.47;1.45;;;0.60;99.90;;;;;;5015973;28;20057;-80
2021/12/07 10:42:29;;;;;;;5.03;1.65;;;0.50;99.90;;;;;;5015669;28;20041;-80
2021/12/07 10:44:55;;;;;;;4.32;1.90;;;0.40;99.90;;;;;;5014805;28;20065;-80
2021/12/07 10:47:23;;;;;;;4.55;2.20;;;0.30;99.90;;;;;;5016035;28;20033;-79
2021/12/07 10:49:57;;;;;;;9.38;3.95;;;0.20;99.90;;;;;;5016038;28;20029;-79
2021/12/07 10:52:28;;;;;;;18.38;6.25;;;0.10;99.90;;;;;;5015942;28;20029;-79
2021/12/07 10:55:03;;;;;;;8.90;3.35;;;0.10;99.90;;;;;;5015699;28;20029;-80
2021/12/07 10:57:56;;;;;;;6.32;2.42;;;0.00;99.90;;;;;;5015350;28;20026;-79
2021/12/07 11:00:43;;;;;;;5.93;2.30;;;0.00;99.90;;;;;;5014348;28;20481;-79
2021/12/07 11:03:21;;;;;;;5.45;2.85;;;0.00;99.90;;;;;;5016228;28;20026;-79
2021/12/07 11:05:54;;;;;;;4.25;2.47;;;0.00;99.90;;;;;;5015868;28;20022;-79
2021/12/07 11:08:23;;;;;;;7.03;2.75;;;0.00;99.90;;;;;;5014148;28;20068;-79
2021/12/07 11:10:50;;;;;;;10.07;3.45;;;0.20;99.90;;;;;;5012272;28;20493;-79
2021/12/07 11:13:33;;;;;;;14.60;3.25;;;0.30;99.90;;;;;;5015194;28;20112;-79
2021/12/07 11:16:06;;;;;;;11.85;3.40;;;0.30;99.90;;;;;;5015439;28;20098;-79
2021/12/07 11:18:35;;;;;;;9.55;3.25;;;0.30;99.90;;;;;;5016968;28;20033;-81
2021/12/07 11:21:04;;;;;;;10.82;3.28;;;0.40;99.90;;;;;;5020020;28;20026;-80
2021/12/07 11:23:33;;;;;;;7.05;2.72;;;0.40;99.90;;;;;;5016002;28;20021;-79
2021/12/07 11:31:33;;;;;;;8.00;3.33;;;0.60;99.90;;;;;;5015216;28;20167;-80
2021/12/07 11:34:11;;;;;;;8.15;4.55;;;0.80;99.90;;;;;;5014818;28;20455;-79
2021/12/07 11:36:54;;;;;;;6.85;3.13;;;1.00;99.90;;;;;;5014980;28;20040;-79
2021/12/07 11:39:27;;;;;;;4.50;2.60;;;1.10;99.90;;;;;;5015500;28;20021;-79
2021/12/07 11:42:01;;;;;;;5.32;2.53;;;1.10;99.90;;;;;;5014996;28;20071;-79
2021/12/07 11:44:28;;;;;;;6.00;3.10;;;1.10;99.90;;;;;;5013610;28;20371;-78
2021/12/07 11:46:56;;;;;;;5.35;2.85;;;1.00;99.90;;;;;;5014858;28;20026;-78
2021/12/07 11:49:25;;;;;;;5.45;2.65;;;0.90;99.90;;;;;;5014895;28;20033;-78
2021/12/07 11:51:55;;;;;;;6.28;2.97;;;0.90;99.90;;;;;;5014896;28;20068;-78
2021/12/07 11:54:24;;;;;;;5.72;3.20;;;0.90;99.90;;;;;;5015209;28;20029;-79
2021/12/07 11:56:51;;;;;;;4.30;2.92;;;0.80;99.90;;;;;;5014651;28;20022;-80
2021/12/07 11:59:17;;;;;;;5.03;3.10;;;0.80;99.90;;;;;;5014235;28;20053;-79
2021/12/07 12:01:45;;;;;;;5.15;3.25;;;0.70;99.90;;;;;;5013441;28;20025;-79
2021/12/07 12:04:12;;;;;;;5.78;3.28;;;0.70;99.90;;;;;;5014652;28;20030;-79
2021/12/07 12:06:38;;;;;;;5.25;2.53;;;0.60;99.90;;;;;;5014608;28;20033;-79
2021/12/07 12:09:04;;;;;;;4.82;3.10;;;0.60;99.90;;;;;;5014685;28;20088;-79
2021/12/07 12:11:48;;;;;;;5.82;2.95;;;0.50;99.90;;;;;;5014256;28;20029;-78
2021/12/07 12:14:34;;;;;;;5.50;2.53;;;0.50;99.90;;;;;;5014701;28;20014;-79
2021/12/07 12:17:18;;;;;;;5.38;3.22;;;0.50;99.90;;;;;;5014249;28;20026;-79
2021/12/07 12:20:11;;;;;;;6.07;3.80;;;0.60;99.90;;;;;;5014287;28;20053;-79
2021/12/07 12:22:51;;;;;;;55.08;20.00;;;0.60;99.90;;;;;;5014283;28;20026;-79
2021/12/07 12:25:21;;;;;;;55.83;16.92;;;0.70;99.90;;;;;;5014240;28;20433;-79
2021/12/07 12:27:49;;;;;;;21.67;7.65;;;0.70;99.90;;;;;;5014241;28;20026;-79
2021/12/07 12:30:42;;;;;;;30.77;9.82;;;0.80;99.90;;;;;;5014569;28;20025;-79
2021/12/07 12:33:12;;;;;;;12.13;4.90;;;0.70;99.90;;;;;;5014465;28;20075;-79
2021/12/07 12:35:43;;;;;;;8.45;4.47;;;0.70;99.90;;;;;;5014120;28;20479;-79
2021/12/07 12:38:30;;;;;;;84.57;24.92;;;0.60;99.90;;;;;;5014189;28;20026;-79
2021/12/07 12:41:11;;;;;;;82.97;29.85;;;0.70;99.90;;;;;;5014073;28;20053;-79
2021/12/07 12:43:42;;;;;;;;;;;0.70;99.90;;;;;;5014246;28;20073;-79
2021/12/07 12:46:10;;;;;;;50.15;17.00;;;0.70;99.90;;;;;;5011734;28;19910;-79
2021/12/07 12:48:35;;;;;;;45.13;16.05;;;0.80;99.90;;;;;;5014082;28;20026;-79
2021/12/07 12:51:01;;;;;;;51.33;19.35;;;0.90;99.90;;;;;;5013709;28;20022;-79
2021/12/07 12:53:34;;;;;;;37.60;14.02;;;1.00;99.90;;;;;;5014086;28;20022;-79
2021/12/07 12:56:25;;;;;;;28.13;10.85;;;1.10;99.90;;;;;;5013986;28;20022;-79
2021/12/07 12:58:54;;;;;;;15.65;7.55;;;1.20;99.90;;;;;;5013866;28;20390;-79
2021/12/07 13:01:30;;;;;;;11.82;6.10;;;1.20;99.90;;;;;;5013859;28;20148;-79
2021/12/07 13:03:59;;;;;;;22.77;11.52;;;1.30;99.90;;;;;;5014236;28;20111;-79
2021/12/07 13:06:25;;;;;;;18.63;10.25;;;1.40;99.90;;;;;;5009144;28;20026;-78
2021/12/07 13:08:57;;;;;;;22.33;11.30;;;1.50;99.90;;;;;;5012442;28;20035;-79
2021/12/07 13:11:42;;;;;;;9.10;5.18;;;1.50;99.90;;;;;;5013840;28;20029;-79
2021/12/07 13:14:30;;;;;;;11.18;4.78;;;1.50;99.90;;;;;;5013968;28;20065;-79
2021/12/07 13:17:07;;;;;;;8.77;4.03;;;1.40;99.90;;;;;;5012114;28;20038;-79
2021/12/07 13:20:06;;;;;;;8.68;3.80;;;1.20;99.90;;;;;;5014055;28;20057;-79
2021/12/07 13:22:45;;;;;;;7.25;4.25;;;1.10;99.90;;;;;;5013577;28;20394;-79
2021/12/07 13:25:13;;;;;;;11.40;5.68;;;1.00;99.90;;;;;;5013755;28;20034;-79
2021/12/07 13:28:11;;;;;;;10.90;5.20;;;1.00;99.90;;;;;;5012927;28;20394;-79
2021/12/07 13:30:48;;;;;;;15.43;6.20;;;0.90;99.90;;;;;;5013554;28;20026;-79
2021/12/07 13:33:39;;;;;;;9.52;5.47;;;0.80;99.90;;;;;;5012176;28;20060;-79
2021/12/07 13:36:42;;;;;;;9.75;5.18;;;0.80;99.90;;;;;;5013669;28;20474;-79
2021/12/07 13:39:10;;;;;;;19.33;7.88;;;0.80;99.90;;;;;;5002182;28;20138;-79
2021/12/07 13:42:04;;;;;;;12.13;5.97;;;0.80;99.90;;;;;;4998224;28;20382;-78
2021/12/07 13:44:58;;;;;;;12.30;6.63;;;0.80;99.90;;;;;;4993860;28;20018;-79
2021/12/07 13:47:30;;;;;;;9.98;4.80;;;0.80;99.90;;;;;;4993483;28;20034;-79
2021/12/07 13:49:59;;;;;;;11.70;4.53;;;0.80;99.90;;;;;;5009809;28;20136;-79
2021/12/07 13:52:29;;;;;;;9.02;4.53;;;0.80;99.90;;;;;;5013501;28;20029;-79
2021/12/07 13:54:59;;;;;;;10.30;5.22;;;0.80;99.90;;;;;;5013948;28;20014;-79
2021/12/07 13:57:27;;;;;;;10.98;5.75;;;0.80;99.90;;;;;;5014355;28;20426;-79
2021/12/07 14:00:00;;;;;;;10.95;5.05;;;0.80;99.90;;;;;;5015869;28;20026;-79
2021/12/07 14:02:27;;;;;;;10.02;5.38;;;0.80;99.90;;;;;;5017304;28;20438;-77
2021/12/07 14:05:05;;;;;;;7.72;4.50;;;0.70;99.90;;;;;;5017363;28;20034;-77
2021/12/07 14:07:33;;;;;;;10.00;4.75;;;0.60;99.90;;;;;;5017279;28;20033;-77
2021/12/07 14:10:10;;;;;;;7.57;4.72;;;0.40;99.90;;;;;;5000055;28;20382;-77
2021/12/07 14:12:35;;;;;;;7.22;4.57;;;0.30;99.90;;;;;;4997005;28;20090;-77
2021/12/07 14:15:20;;;;;;;6.75;4.03;;;0.10;99.90;;;;;;4997603;28;20031;-77
2021/12/07 14:18:13;;;;;;;8.25;4.65;;;-0.10;99.90;;;;;;4997339;28;20048;-77
2021/12/07 14:20:41;;;;;;;7.72;4.65;;;-0.10;99.90;;;;;;5022653;28;20053;-77
2021/12/07 14:23:27;;;;;;;9.30;4.70;;;-0.10;99.90;;;;;;4996360;28;20022;-77
2021/12/07 14:26:12;;;;;;;10.57;5.28;;;0.00;99.90;;;;;;4998972;28;20061;-77
2021/12/07 14:28:56;;;;;;;12.57;5.50;;;0.00;99.90;;;;;;5014576;28;20025;-77
2021/12/07 14:31:38;;;;;;;10.27;5.53;;;-0.10;99.90;;;;;;5016292;28;20018;-77
2021/12/07 14:34:03;;;;;;;;;;;-0.20;99.90;;;;;;5016813;28;20034;-77
2021/12/07 14:36:31;;;;;;;11.35;5.45;;;-0.30;99.90;;;;;;5016543;28;19969;-77